createdAt,value
2018-10-16T00:01:49.653Z,95.10
2018-10-16T00:04:18.197Z,95.50
2018-10-16T00:06:46.771Z,95.30
2018-10-16T00:09:15.287Z,95.30
2018-10-16T00:11:57.968Z,95.30
2018-10-16T00:14:27.204Z,95.30
2018-10-16T00:16:55.801Z,95.20
2018-10-16T00:19:24.372Z,95.30
2018-10-16T00:21:53.007Z,95.30
2018-10-16T00:24:22.077Z,95.30
2018-10-16T00:26:50.808Z,95.30
2018-10-16T00:29:19.628Z,95.30
2018-10-16T00:31:48.199Z,95.40
2018-10-16T00:34:16.823Z,95.50
2018-10-16T00:36:45.479Z,95.50
2018-10-16T00:39:15.306Z,95.90
2018-10-16T00:41:44.156Z,95.40
2018-10-16T00:44:13.456Z,95.40
2018-10-16T00:46:42.108Z,95.00
2018-10-16T00:49:10.730Z,95.20
2018-10-16T00:51:40.408Z,95.20
2018-10-16T00:54:09.497Z,95.30
2018-10-16T00:56:38.340Z,95.30
2018-10-16T00:59:07.186Z,95.30
2018-10-16T01:01:36.014Z,95.30
2018-10-16T01:04:05.843Z,95.30
2018-10-16T01:06:35.429Z,95.70
2018-10-16T01:09:07.971Z,95.50
2018-10-16T01:11:36.778Z,95.60
2018-10-16T01:14:06.510Z,95.70
2018-10-16T01:16:35.085Z,95.70
2018-10-16T01:19:03.800Z,96.10
2018-10-16T01:21:32.357Z,95.70
2018-10-16T01:24:00.947Z,95.60
2018-10-16T01:26:29.497Z,95.50
2018-10-16T01:28:58.059Z,95.50
2018-10-16T01:31:26.783Z,95.50
2018-10-16T01:33:55.421Z,95.50
2018-10-16T01:36:23.951Z,95.50
2018-10-16T01:38:52.516Z,95.50
2018-10-16T01:41:21.225Z,95.60
2018-10-16T01:43:49.764Z,95.60
2018-10-16T01:46:18.404Z,95.70
2018-10-16T01:48:46.914Z,95.70
2018-10-16T01:51:15.545Z,95.80
2018-10-16T01:53:44.189Z,95.80
2018-10-16T01:56:12.766Z,95.80
2018-10-16T01:58:41.296Z,95.90
2018-10-16T02:01:10.004Z,95.90
2018-10-16T02:03:38.582Z,95.80
2018-10-16T02:06:07.149Z,95.80
2018-10-16T02:08:35.752Z,95.70
2018-10-16T02:11:05.160Z,95.60
2018-10-16T02:13:33.740Z,95.70
2018-10-16T02:16:02.276Z,95.80
2018-10-16T02:18:30.909Z,95.80
2018-10-16T02:20:59.535Z,95.80
2018-10-16T02:23:28.108Z,95.90
2018-10-16T02:25:56.796Z,95.90
2018-10-16T02:28:25.972Z,95.90
2018-10-16T02:30:54.651Z,96.00
2018-10-16T02:33:23.200Z,96.00
2018-10-16T02:35:51.840Z,96.00
2018-10-16T02:38:20.447Z,96.10
2018-10-16T02:40:49.135Z,96.00
2018-10-16T02:43:17.671Z,96.10
2018-10-16T02:45:46.281Z,96.10
2018-10-16T02:48:14.836Z,96.20
2018-10-16T02:50:44.207Z,96.20
2018-10-16T02:53:12.771Z,96.20
2018-10-16T02:55:41.296Z,96.20
2018-10-16T02:58:09.918Z,96.20
2018-10-16T03:00:38.516Z,96.30
2018-10-16T03:03:07.147Z,96.30
2018-10-16T03:05:35.741Z,96.20
2018-10-16T03:08:06.312Z,96.20
2018-10-16T03:10:34.888Z,96.20
2018-10-16T03:13:03.436Z,96.10
2018-10-16T03:15:32.370Z,96.10
2018-10-16T03:18:01.093Z,96.00
2018-10-16T03:20:29.641Z,95.90
2018-10-16T03:22:58.138Z,96.00
2018-10-16T03:25:26.711Z,96.10
2018-10-16T03:27:55.328Z,96.20
2018-10-16T03:30:24.014Z,96.20
2018-10-16T03:32:52.819Z,96.30
2018-10-16T03:35:21.397Z,96.30
2018-10-16T03:37:49.994Z,96.40
2018-10-16T03:40:18.637Z,96.60
2018-10-16T03:42:47.296Z,96.70
2018-10-16T03:45:15.880Z,96.70
2018-10-16T03:47:44.606Z,96.70
2018-10-16T03:50:12.997Z,96.60
2018-10-16T03:52:41.725Z,96.70
2018-10-16T03:55:10.346Z,96.70
2018-10-16T03:57:38.972Z,96.70
2018-10-16T04:00:08.442Z,96.70
2018-10-16T04:02:36.984Z,96.80
2018-10-16T04:05:05.875Z,96.90
2018-10-16T04:07:34.462Z,96.90
2018-10-16T04:10:04.149Z,97.30
2018-10-16T04:12:32.795Z,97.00
2018-10-16T04:15:01.372Z,97.00
2018-10-16T04:17:29.943Z,97.10
2018-10-16T04:19:58.551Z,97.20
2018-10-16T04:22:27.223Z,97.20
2018-10-16T04:24:55.906Z,97.10
2018-10-16T04:27:24.495Z,97.50
2018-10-16T04:29:53.071Z,97.20
2018-10-16T04:32:21.761Z,97.20
2018-10-16T04:34:50.360Z,97.30
2018-10-16T04:37:18.917Z,97.20
2018-10-16T04:39:47.520Z,97.20
2018-10-16T04:42:16.176Z,97.20
2018-10-16T04:44:44.785Z,97.20
2018-10-16T04:47:13.331Z,97.20
2018-10-16T04:49:41.962Z,97.30
2018-10-16T04:52:10.663Z,97.20
2018-10-16T04:54:39.394Z,97.40
2018-10-16T04:57:08.118Z,97.40
2018-10-16T04:59:36.642Z,97.50
2018-10-16T05:02:05.494Z,97.60
2018-10-16T05:04:36.024Z,97.70
2018-10-16T05:07:04.788Z,97.80
2018-10-16T05:09:33.464Z,97.70
2018-10-16T05:12:02.278Z,97.70
2018-10-16T05:14:30.834Z,97.70
2018-10-16T05:16:59.576Z,97.70
2018-10-16T05:19:28.122Z,97.80
2018-10-16T05:21:56.892Z,97.80
2018-10-16T05:24:25.521Z,97.70
2018-10-16T05:26:54.210Z,97.80
2018-10-16T05:29:22.863Z,97.80
2018-10-16T05:31:51.463Z,97.80
2018-10-16T05:34:20.139Z,97.80
2018-10-16T05:36:49.564Z,97.90
2018-10-16T05:39:18.222Z,97.90
2018-10-16T05:41:46.898Z,97.90
2018-10-16T05:44:15.585Z,97.90
2018-10-16T05:46:44.240Z,97.90
2018-10-16T05:49:12.961Z,97.90
2018-10-16T05:51:41.665Z,97.80
2018-10-16T05:54:10.374Z,97.80
2018-10-16T05:56:38.993Z,97.80
2018-10-16T05:59:07.533Z,97.70
2018-10-16T06:01:36.191Z,97.70
2018-10-16T06:04:04.934Z,97.70
2018-10-16T06:06:33.556Z,97.60
2018-10-16T06:09:02.248Z,97.50
2018-10-16T06:11:30.969Z,97.50
2018-10-16T06:13:59.623Z,97.40
2018-10-16T06:16:28.620Z,97.30
2018-10-16T06:18:57.828Z,97.20
2018-10-16T06:21:26.481Z,97.10
2018-10-16T06:23:55.147Z,97.00
2018-10-16T06:26:24.426Z,96.90
2018-10-16T06:28:53.179Z,96.70
2018-10-16T06:31:21.918Z,96.60
2018-10-16T06:33:50.608Z,97.20
2018-10-16T06:36:19.313Z,96.40
2018-10-16T06:38:47.914Z,96.40
2018-10-16T06:41:16.745Z,96.30
2018-10-16T06:43:45.294Z,96.20
2018-10-16T06:46:13.974Z,96.20
2018-10-16T06:48:42.908Z,96.10
2018-10-16T06:51:11.192Z,96.10
2018-10-16T06:53:39.815Z,96.10
2018-10-16T06:56:08.434Z,96.00
2018-10-16T06:58:37.088Z,95.90
2018-10-16T07:01:07.753Z,95.90
2018-10-16T07:03:36.510Z,96.20
2018-10-16T07:06:05.373Z,95.80
2018-10-16T07:08:34.274Z,95.70
2018-10-16T07:11:03.153Z,95.60
2018-10-16T07:13:33.892Z,95.60
2018-10-16T07:16:02.725Z,95.50
2018-10-16T07:18:31.543Z,95.50
2018-10-16T07:21:01.457Z,95.40
2018-10-16T07:23:30.317Z,95.40
2018-10-16T07:25:59.139Z,95.30
2018-10-16T07:28:28.097Z,95.30
2018-10-16T07:30:58.685Z,95.20
2018-10-16T07:33:27.590Z,95.20
2018-10-16T07:35:57.184Z,95.10
2018-10-16T07:38:26.834Z,95.10
2018-10-16T07:40:55.510Z,95.00
2018-10-16T07:43:24.386Z,95.00
2018-10-16T07:45:53.104Z,94.80
2018-10-16T07:48:21.946Z,94.70
2018-10-16T07:50:50.865Z,94.60
2018-10-16T07:53:21.337Z,94.50
2018-10-16T07:55:51.103Z,94.50
2018-10-16T07:58:19.848Z,94.40
2018-10-16T08:00:48.754Z,94.40
2018-10-16T08:03:17.622Z,94.40
2018-10-16T08:05:46.360Z,94.30
2018-10-16T08:08:16.073Z,94.00
2018-10-16T08:10:45.416Z,93.80
2018-10-16T08:13:14.244Z,93.60
2018-10-16T08:15:43.060Z,93.30
2018-10-16T08:18:12.750Z,93.20
2018-10-16T08:20:41.705Z,93.10
2018-10-16T08:23:10.446Z,93.00
2018-10-16T08:25:39.447Z,92.80
2018-10-16T08:28:08.413Z,92.50
2018-10-16T08:30:37.338Z,92.30
2018-10-16T08:33:06.557Z,92.00
2018-10-16T08:35:37.238Z,91.90
2018-10-16T08:39:17.425Z,91.70
2018-10-16T08:42:56.043Z,91.40
2018-10-16T08:45:36.127Z,91.30
2018-10-16T08:48:20.236Z,91.20
2018-10-16T08:51:02.173Z,91.20
2018-10-16T08:53:38.113Z,91.00
2018-10-16T08:56:06.833Z,90.70
2018-10-16T08:58:35.452Z,90.40
2018-10-16T09:01:04.053Z,90.40
2018-10-16T09:03:32.592Z,90.20
2018-10-16T09:06:01.436Z,90.00
2018-10-16T09:08:30.184Z,89.70
2018-10-16T09:10:58.764Z,89.40
2018-10-16T09:13:27.525Z,88.70
2018-10-16T09:15:56.089Z,88.10
2018-10-16T09:18:24.979Z,87.50
2018-10-16T09:20:53.757Z,87.20
2018-10-16T09:23:22.520Z,87.90
2018-10-16T09:25:51.448Z,86.80
2018-10-16T09:28:20.154Z,86.70
2018-10-16T09:30:48.979Z,86.10
2018-10-16T09:33:17.837Z,86.10
2018-10-16T09:35:46.433Z,85.60
2018-10-16T09:38:14.965Z,85.30
2018-10-16T09:40:43.535Z,85.20
2018-10-16T09:43:12.118Z,85.30
2018-10-16T09:45:40.838Z,85.30
2018-10-16T09:48:09.626Z,85.20
2018-10-16T09:50:38.379Z,85.20
2018-10-16T09:53:07.493Z,84.70
2018-10-16T09:55:36.065Z,84.30
2018-10-16T09:58:06.026Z,84.20
2018-10-16T10:00:40.123Z,84.40
2018-10-16T10:03:08.735Z,84.30
2018-10-16T10:05:38.185Z,83.70
2018-10-16T10:08:07.006Z,83.50
2018-10-16T10:10:35.595Z,83.60
2018-10-16T10:13:04.303Z,83.40
2018-10-16T10:15:33.585Z,83.40
2018-10-16T10:18:02.178Z,83.20
2018-10-16T10:20:31.484Z,83.50
2018-10-16T10:23:00.036Z,83.20
2018-10-16T10:25:28.649Z,82.50
2018-10-16T10:27:57.238Z,81.80
2018-10-16T10:30:25.748Z,81.10
2018-10-16T10:32:54.413Z,80.80
2018-10-16T10:35:23.018Z,80.60
2018-10-16T10:37:51.627Z,80.50
2018-10-16T10:40:20.177Z,80.30
2018-10-16T10:42:48.835Z,80.10
2018-10-16T10:45:17.454Z,79.80
2018-10-16T10:47:46.041Z,79.40
2018-10-16T10:50:15.056Z,79.20
2018-10-16T10:52:43.562Z,78.80
2018-10-16T10:55:12.207Z,77.80
2018-10-16T10:57:41.190Z,76.80
2018-10-16T11:00:12.885Z,75.80
2018-10-16T11:02:42.371Z,75.00
2018-10-16T11:05:11.653Z,75.00
2018-10-16T11:07:40.307Z,75.00
2018-10-16T11:10:11.585Z,75.00
2018-10-16T11:12:40.701Z,74.70
2018-10-16T11:15:09.503Z,74.60
2018-10-16T11:17:39.573Z,73.80
2018-10-16T11:20:10.115Z,73.20
2018-10-16T11:22:38.924Z,73.00
2018-10-16T11:25:08.951Z,72.80
2018-10-16T11:27:37.925Z,72.90
2018-10-16T11:30:09.227Z,72.90
2018-10-16T11:32:38.265Z,73.20
2018-10-16T11:35:08.165Z,73.20
2018-10-16T11:37:36.840Z,73.10
2018-10-16T11:40:05.548Z,72.80
2018-10-16T11:42:34.258Z,71.70
2018-10-16T11:45:03.040Z,70.60
2018-10-16T11:47:31.789Z,70.00
2018-10-16T11:50:00.476Z,69.00
2018-10-16T11:52:30.368Z,67.80
2018-10-16T11:54:59.876Z,67.50
2018-10-16T11:57:28.520Z,67.20
2018-10-16T11:59:57.091Z,66.60
2018-10-16T12:02:25.752Z,65.70
2018-10-16T12:04:54.553Z,64.80
2018-10-16T12:07:23.232Z,64.70
2018-10-16T12:09:51.810Z,64.60
2018-10-16T12:12:20.443Z,65.00
2018-10-16T12:14:49.603Z,65.40
2018-10-16T12:17:37.010Z,65.30
2018-10-16T12:20:14.332Z,64.90
2018-10-16T12:22:42.993Z,65.20
2018-10-16T12:25:11.637Z,64.00
2018-10-16T12:27:40.820Z,64.20
2018-10-16T12:30:09.904Z,64.30
2018-10-16T12:32:38.633Z,63.80
2018-10-16T12:35:07.609Z,63.40
2018-10-16T12:37:36.213Z,63.10
2018-10-16T12:40:12.206Z,63.20
2018-10-16T12:42:40.748Z,63.20
2018-10-16T12:45:09.497Z,63.00
2018-10-16T12:47:38.987Z,62.70
2018-10-16T12:50:07.560Z,62.40
2018-10-16T12:52:36.261Z,62.20
2018-10-16T12:55:06.473Z,61.80
2018-10-16T12:57:35.065Z,61.60
2018-10-16T13:00:03.767Z,61.50
2018-10-16T13:02:32.387Z,61.00
2018-10-16T13:05:00.936Z,60.40
2018-10-16T13:07:35.783Z,59.70
2018-10-16T13:10:07.427Z,59.70
2018-10-16T13:12:36.146Z,59.50
2018-10-16T13:15:05.509Z,59.30
2018-10-16T13:17:34.187Z,59.10
2018-10-16T13:20:02.841Z,58.90
2018-10-16T13:22:31.662Z,58.90
2018-10-16T13:25:00.253Z,58.90
2018-10-16T13:27:28.932Z,59.20
2018-10-16T13:29:57.887Z,59.10
2018-10-16T13:32:26.524Z,58.90
2018-10-16T13:34:55.131Z,59.00
2018-10-16T13:37:23.840Z,59.10
2018-10-16T13:39:52.620Z,59.30
2018-10-16T13:42:21.387Z,59.60
2018-10-16T13:44:50.659Z,59.40
2018-10-16T13:47:19.218Z,59.10
2018-10-16T13:49:47.726Z,59.50
2018-10-16T13:52:16.383Z,59.50
2018-10-16T13:54:45.088Z,59.50
2018-10-16T13:57:13.700Z,59.80
2018-10-16T13:59:42.348Z,60.20
2018-10-16T14:02:11.094Z,60.50
2018-10-16T14:04:39.663Z,60.90
2018-10-16T14:07:08.262Z,61.20
2018-10-16T14:09:37.077Z,61.50
2018-10-16T14:12:06.339Z,61.50
2018-10-16T14:14:35.027Z,61.60
2018-10-16T14:17:03.646Z,61.90
2018-10-16T14:19:32.380Z,62.10
2018-10-16T14:22:01.275Z,62.10
2018-10-16T14:24:30.096Z,61.70
2018-10-16T14:26:59.840Z,61.70
2018-10-16T14:29:28.695Z,61.70
2018-10-16T14:31:58.021Z,62.10
2018-10-16T14:34:26.744Z,62.60
2018-10-16T14:36:55.877Z,63.10
2018-10-16T14:39:24.474Z,63.30
2018-10-16T14:41:53.325Z,63.50
2018-10-16T14:44:22.859Z,64.50
2018-10-16T14:46:51.488Z,63.80
2018-10-16T14:49:20.188Z,64.40
2018-10-16T14:51:48.844Z,64.20
2018-10-16T14:54:18.344Z,64.20
2018-10-16T14:56:47.009Z,64.20
2018-10-16T14:59:15.748Z,64.10
2018-10-16T15:01:44.909Z,63.60
2018-10-16T15:04:13.675Z,63.50
2018-10-16T15:06:42.223Z,64.30
2018-10-16T15:09:11.284Z,63.20
2018-10-16T15:11:40.576Z,63.10
2018-10-16T15:14:10.106Z,63.20
2018-10-16T15:16:39.768Z,63.50
2018-10-16T15:19:08.408Z,63.70
2018-10-16T15:21:36.942Z,64.00
2018-10-16T15:24:05.882Z,64.00
2018-10-16T15:26:34.470Z,64.40
2018-10-16T15:29:03.090Z,64.50
2018-10-16T15:31:31.728Z,64.40
2018-10-16T15:34:00.321Z,64.50
2018-10-16T15:36:28.970Z,64.70
2018-10-16T15:38:57.576Z,64.70
2018-10-16T15:41:26.164Z,65.00
2018-10-16T15:43:54.743Z,65.60
2018-10-16T15:46:23.327Z,65.40
2018-10-16T15:48:51.915Z,65.50
2018-10-16T15:51:20.609Z,65.90
2018-10-16T15:53:49.286Z,66.30
2018-10-16T15:56:18.066Z,66.40
2018-10-16T15:58:46.740Z,67.10
2018-10-16T16:01:15.553Z,67.70
2018-10-16T16:03:44.935Z,67.70
2018-10-16T16:06:13.672Z,68.90
2018-10-16T16:08:42.337Z,69.30
2018-10-16T16:11:11.112Z,69.50
2018-10-16T16:13:39.749Z,70.10
2018-10-16T16:16:08.324Z,70.60
2018-10-16T16:18:37.833Z,71.50
2018-10-16T16:21:06.772Z,73.10
2018-10-16T16:23:35.292Z,74.40
2018-10-16T16:26:03.981Z,75.30
2018-10-16T16:28:32.857Z,75.80
2018-10-16T16:31:01.527Z,76.90
2018-10-16T16:33:30.170Z,76.50
2018-10-16T16:35:59.791Z,76.90
2018-10-16T16:38:28.360Z,77.00
2018-10-16T16:40:57.121Z,77.50
2018-10-16T16:43:25.731Z,77.70
2018-10-16T16:45:54.396Z,78.00
2018-10-16T16:48:22.963Z,78.50
2018-10-16T16:50:51.608Z,78.60
2018-10-16T16:53:20.176Z,79.00
2018-10-16T16:55:48.754Z,79.40
2018-10-16T16:58:17.340Z,80.00
2018-10-16T17:00:46.053Z,80.40
2018-10-16T17:03:14.758Z,80.90
2018-10-16T17:05:43.346Z,81.10
2018-10-16T17:08:11.950Z,81.20
2018-10-16T17:10:40.609Z,81.50
2018-10-16T17:13:09.284Z,81.80
2018-10-16T17:15:37.858Z,82.20
2018-10-16T17:18:06.433Z,82.70
2018-10-16T17:20:35.119Z,83.20
2018-10-16T17:23:03.823Z,83.60
2018-10-16T17:25:32.575Z,84.10
2018-10-16T17:28:01.044Z,84.30
2018-10-16T17:30:30.964Z,84.60
2018-10-16T17:32:59.732Z,85.00
2018-10-16T17:35:28.491Z,85.30
2018-10-16T17:37:58.077Z,85.50
2018-10-16T17:40:27.513Z,85.70
2018-10-16T17:42:56.314Z,85.70
2018-10-16T17:45:25.001Z,85.80
2018-10-16T17:47:53.847Z,86.00
2018-10-16T17:50:22.368Z,86.20
2018-10-16T17:52:53.850Z,86.50
2018-10-16T17:55:23.522Z,86.80
2018-10-16T17:57:52.121Z,86.90
2018-10-16T18:00:20.661Z,87.10
2018-10-16T18:02:49.280Z,88.10
2018-10-16T18:05:18.076Z,87.60
2018-10-16T18:07:46.839Z,87.70
2018-10-16T18:10:15.475Z,88.70
2018-10-16T18:12:44.254Z,88.20
2018-10-16T18:15:13.880Z,88.30
2018-10-16T18:17:43.177Z,88.50
2018-10-16T18:20:13.616Z,88.50
2018-10-16T18:22:42.332Z,88.40
2018-10-16T18:25:11.685Z,88.50
2018-10-16T18:27:40.705Z,88.60
2018-10-16T18:30:09.885Z,88.80
2018-10-16T18:32:38.874Z,89.10
2018-10-16T18:35:07.592Z,89.10
2018-10-16T18:37:36.780Z,89.10
2018-10-16T18:40:07.336Z,89.30
2018-10-16T18:42:35.964Z,89.60
2018-10-16T18:45:05.109Z,89.70
2018-10-16T18:47:33.720Z,89.90
2018-10-16T18:50:02.877Z,90.00
2018-10-16T18:52:31.595Z,90.00
2018-10-16T18:55:00.566Z,90.00
2018-10-16T18:57:29.876Z,90.00
2018-10-16T18:59:58.565Z,90.00
2018-10-16T19:02:27.243Z,90.00
2018-10-16T19:04:55.976Z,90.00
2018-10-16T19:07:24.625Z,90.00
2018-10-16T19:09:53.331Z,90.30
2018-10-16T19:12:22.080Z,90.10
2018-10-16T19:14:50.677Z,90.10
2018-10-16T19:17:19.883Z,90.20
2018-10-16T19:19:48.555Z,90.10
2018-10-16T19:22:17.822Z,90.10
2018-10-16T19:24:46.401Z,90.10
2018-10-16T19:27:14.954Z,90.20
2018-10-16T19:29:43.471Z,90.10
2018-10-16T19:32:12.077Z,90.10
2018-10-16T19:34:40.635Z,90.00
2018-10-16T19:37:09.214Z,89.90
2018-10-16T19:39:37.838Z,90.10
2018-10-16T19:42:07.479Z,90.10
2018-10-16T19:44:36.070Z,89.30
2018-10-16T19:47:04.973Z,89.00
2018-10-16T19:49:33.685Z,88.50
2018-10-16T19:52:02.458Z,88.20
2018-10-16T19:54:31.134Z,88.10
2018-10-16T19:56:59.752Z,88.00
2018-10-16T19:59:28.410Z,88.10
2018-10-16T20:01:57.037Z,88.10
2018-10-16T20:04:25.587Z,88.00
2018-10-16T20:06:54.168Z,88.00
2018-10-16T20:09:23.384Z,87.80
2018-10-16T20:11:52.019Z,87.40
2018-10-16T20:14:20.763Z,87.30
2018-10-16T20:16:49.325Z,87.20
2018-10-16T20:19:17.936Z,87.30
2018-10-16T20:21:46.596Z,87.20
2018-10-16T20:24:15.166Z,87.00
2018-10-16T20:26:43.750Z,86.50
2018-10-16T20:29:12.336Z,86.30
2018-10-16T20:31:41.045Z,86.20
2018-10-16T20:34:09.657Z,86.00
2018-10-16T20:36:38.520Z,85.90
2018-10-16T20:39:10.189Z,85.70
2018-10-16T20:41:39.146Z,85.40
2018-10-16T20:44:07.822Z,85.20
2018-10-16T20:46:36.543Z,84.90
2018-10-16T20:49:05.765Z,84.60
2018-10-16T20:51:34.670Z,84.60
2018-10-16T20:54:03.446Z,84.60
2018-10-16T20:56:32.573Z,84.70
2018-10-16T20:59:01.300Z,84.70
2018-10-16T21:01:29.989Z,84.70
2018-10-16T21:03:58.504Z,84.70
2018-10-16T21:06:27.176Z,84.70
2018-10-16T21:08:55.808Z,84.60
2018-10-16T21:11:24.465Z,84.30
2018-10-16T21:13:53.068Z,84.30
2018-10-16T21:16:21.734Z,84.30
2018-10-16T21:18:50.434Z,84.20
2018-10-16T21:21:19.125Z,84.20
2018-10-16T21:23:47.769Z,84.20
2018-10-16T21:26:16.481Z,84.20
2018-10-16T21:28:45.110Z,84.00
2018-10-16T21:31:13.853Z,83.90
2018-10-16T21:33:42.564Z,83.80
2018-10-16T21:36:11.131Z,83.60
2018-10-16T21:38:39.726Z,83.40
2018-10-16T21:41:08.442Z,83.30
2018-10-16T21:43:37.012Z,83.20
2018-10-16T21:46:06.061Z,83.20
2018-10-16T21:48:34.667Z,83.10
2018-10-16T21:51:03.382Z,83.00
2018-10-16T21:53:32.063Z,83.00
2018-10-16T21:56:00.727Z,83.00
2018-10-16T21:58:29.391Z,83.10
2018-10-16T22:01:03.331Z,83.10
2018-10-16T22:03:32.767Z,83.30
2018-10-16T22:06:01.376Z,83.50
2018-10-16T22:08:29.885Z,83.70
2018-10-16T22:10:58.567Z,83.80
2018-10-16T22:13:27.154Z,83.70
2018-10-16T22:15:55.725Z,83.60
2018-10-16T22:18:24.279Z,83.60
2018-10-16T22:20:53.193Z,83.70
2018-10-16T22:23:21.887Z,83.70
2018-10-16T22:25:50.504Z,83.90
2018-10-16T22:28:19.099Z,83.90
2018-10-16T22:30:47.886Z,84.60
2018-10-16T22:33:16.446Z,84.00
2018-10-16T22:35:45.159Z,84.30
2018-10-16T22:38:13.824Z,84.40
2018-10-16T22:40:42.475Z,84.40
2018-10-16T22:43:11.185Z,84.50
2018-10-16T22:45:39.710Z,85.40
2018-10-16T22:48:08.259Z,84.70
2018-10-16T22:50:36.819Z,84.60
2018-10-16T22:53:05.561Z,84.60
2018-10-16T22:55:34.163Z,84.60
2018-10-16T22:58:02.973Z,84.40
2018-10-16T23:00:31.547Z,84.50
2018-10-16T23:03:00.144Z,85.40
2018-10-16T23:05:28.770Z,84.80
2018-10-16T23:07:57.383Z,84.80
2018-10-16T23:10:26.022Z,85.20
2018-10-16T23:13:05.004Z,85.50
2018-10-16T23:15:33.470Z,85.60
2018-10-16T23:18:02.522Z,86.00
2018-10-16T23:20:32.078Z,86.10
2018-10-16T23:23:00.619Z,86.40
2018-10-16T23:25:29.228Z,86.70
2018-10-16T23:27:57.823Z,87.10
2018-10-16T23:30:26.373Z,87.40
2018-10-16T23:32:55.023Z,87.70
2018-10-16T23:35:23.667Z,88.10
2018-10-16T23:40:34.188Z,89.00
2018-10-16T23:43:03.350Z,89.60
2018-10-16T23:45:31.840Z,90.10
2018-10-16T23:48:00.423Z,90.30
2018-10-16T23:50:28.963Z,90.60
2018-10-16T23:52:57.602Z,90.90
2018-10-16T23:55:26.228Z,91.50
2018-10-16T23:57:54.919Z,91.30
